Burlington, CO

11:51 PM MDT on June 02, 2015 (GMT -0600)
Kit Carson County | | Change Station
CLOSE
Current Station
Airport
Location: Burlington,
Elevation: 4216 ft
Nearby Weather Stations

Elev 4216 ft 39.24 °N, 102.28 °W | Updated 58 minutes ago

Clear
Clear
69 °F
Feels Like 69 °F
N
10
Wind Variable Wind from South

Today
High -- | Low -- °F
--% Chance of Precip.
Yesterday
High -- | Low -- °F
Precip. -- in
5:24 AM 8:10 PM
Full, 100% visible
Pressure 29.68 in
Visibility 10.0 miles
Clouds Clear
Dew Point 54 °F
Humidity 58%
Rainfall 0.00 in
Snow Depth Not available.
UV 0 out of 12
Pollen 7.10 out of 12
Air Quality Not available.
Flu Activity Sporadic
METAR KITR 030453Z AUTO 17009KT 10SM CLR 21/12 A2983 RMK AO2 SLP048 T02060122

More Conditions Fewer Conditions

Pressure 29.68 in
Visibility 10.0 miles
Clouds Clear
Dew Point 54 °F
Humidity 58%
Rainfall 0.00 in
Snow Depth Not available.
UV 0 out of 12
Pollen 7.10 out of 12
Air Quality Not available.
Flu Activity Sporadic
METAR KITR 030453Z AUTO 17009KT 10SM CLR 21/12 A2983 RMK AO2 SLP048 T02060122

More Conditions Fewer Conditions

10-Day Weather Forecast

×

Almanac

Astronomy

Jun. 02, 2015 Rise Set
Actual Time
Civil Twilight
Nautical Twilight
Astronomical Twilight
Moon
Length of Visible Light
Length of Day
Tomorrow will be .
, % of the Moon is Illuminated

Today's Extremes

State Highs State Lows

Community

WunderPhotos

Upload Photos

1,826,177 photos uploaded!

WunderBlogs® & News

Nearby

Air Quality

  Air Quality AQ Index Pollutant
Not available.

Snow Depth

Station Depth Elevation

Earthquake Activity

City Distance Mag. Time & Date
Minimum magnitude displayed is 2.5.

Coastal Water Temperatures

Place Temperature

Stations

Nearby Weather Stations

Station Location Temp. Windchill Dew Point Humidity Wind Precip. Elev Updated Type